sensor_id;sensor_type;location;lat;lon;timestamp;P1;durP1;ratioP1;P2;durP2;ratioP2
83141;SDS011;75194;51.180;5.972;2024-03-23T00:56:08;10.18;;;1.95;;
83141;SDS011;75194;51.180;5.972;2024-03-23T00:58:34;11.43;;;2.53;;
83141;SDS011;75194;51.180;5.972;2024-03-23T01:01:00;8.77;;;1.40;;
83141;SDS011;75194;51.180;5.972;2024-03-23T01:03:25;9.73;;;2.00;;
83141;SDS011;75194;51.180;5.972;2024-03-23T01:05:51;10.20;;;1.70;;
83141;SDS011;75194;51.180;5.972;2024-03-23T01:08:19;8.90;;;1.50;;
83141;SDS011;75194;51.180;5.972;2024-03-23T01:10:53;7.43;;;1.52;;
83141;SDS011;75194;51.180;5.972;2024-03-23T01:13:22;10.43;;;1.60;;
83141;SDS011;75194;51.180;5.972;2024-03-23T01:15:51;8.02;;;1.42;;
83141;SDS011;75194;51.180;5.972;2024-03-23T01:18:18;9.52;;;1.45;;
83141;SDS011;75194;51.180;5.972;2024-03-23T01:20:45;7.22;;;1.40;;
83141;SDS011;75194;51.180;5.972;2024-03-23T01:23:11;9.90;;;1.75;;
83141;SDS011;75194;51.180;5.972;2024-03-23T01:25:37;6.90;;;1.90;;
83141;SDS011;75194;51.180;5.972;2024-03-23T01:28:07;7.55;;;1.52;;
83141;SDS011;75194;51.180;5.972;2024-03-23T01:33:00;9.57;;;1.67;;
83141;SDS011;75194;51.180;5.972;2024-03-23T01:35:25;7.55;;;1.60;;
83141;SDS011;75194;51.180;5.972;2024-03-23T01:37:52;6.70;;;1.40;;
83141;SDS011;75194;51.180;5.972;2024-03-23T01:40:17;7.53;;;1.48;;
83141;SDS011;75194;51.180;5.972;2024-03-23T01:42:54;9.57;;;1.10;;
83141;SDS011;75194;51.180;5.972;2024-03-23T01:45:38;9.85;;;1.45;;
83141;SDS011;75194;51.180;5.972;2024-03-23T01:48:04;10.95;;;1.40;;
83141;SDS011;75194;51.180;5.972;2024-03-23T01:50:30;8.20;;;1.30;;
83141;SDS011;75194;51.180;5.972;2024-03-23T01:53:02;6.30;;;1.30;;
83141;SDS011;75194;51.180;5.972;2024-03-23T01:55:32;7.53;;;1.30;;
83141;SDS011;75194;51.180;5.972;2024-03-23T01:57:57;8.45;;;1.58;;
83141;SDS011;75194;51.180;5.972;2024-03-23T02:00:23;9.63;;;1.40;;
83141;SDS011;75194;51.180;5.972;2024-03-23T02:02:49;9.52;;;1.58;;
83141;SDS011;75194;51.180;5.972;2024-03-23T02:05:14;9.70;;;1.77;;
83141;SDS011;75194;51.180;5.972;2024-03-23T02:07:43;11.27;;;1.60;;
83141;SDS011;75194;51.180;5.972;2024-03-23T02:10:09;9.75;;;1.67;;
83141;SDS011;75194;51.180;5.972;2024-03-23T02:12:36;12.88;;;1.88;;
83141;SDS011;75194;51.180;5.972;2024-03-23T02:15:02;9.70;;;1.45;;
83141;SDS011;75194;51.180;5.972;2024-03-23T02:17:29;7.60;;;1.60;;
83141;SDS011;75194;51.180;5.972;2024-03-23T02:19:57;9.93;;;1.52;;
83141;SDS011;75194;51.180;5.972;2024-03-23T02:22:22;9.80;;;1.80;;
83141;SDS011;75194;51.180;5.972;2024-03-23T02:24:48;7.78;;;1.55;;
83141;SDS011;75194;51.180;5.972;2024-03-23T02:27:16;7.38;;;1.67;;
83141;SDS011;75194;51.180;5.972;2024-03-23T02:29:42;9.48;;;1.40;;
83141;SDS011;75194;51.180;5.972;2024-03-23T02:32:08;6.63;;;1.58;;
83141;SDS011;75194;51.180;5.972;2024-03-23T02:34:36;7.93;;;1.30;;
83141;SDS011;75194;51.180;5.972;2024-03-23T02:37:02;10.63;;;1.45;;
83141;SDS011;75194;51.180;5.972;2024-03-23T02:39:28;8.98;;;1.48;;
83141;SDS011;75194;51.180;5.972;2024-03-23T02:41:54;8.48;;;1.83;;
83141;SDS011;75194;51.180;5.972;2024-03-23T02:44:19;8.73;;;1.48;;
83141;SDS011;75194;51.180;5.972;2024-03-23T02:46:47;9.07;;;1.60;;
83141;SDS011;75194;51.180;5.972;2024-03-23T02:49:12;9.35;;;1.20;;
83141;SDS011;75194;51.180;5.972;2024-03-23T02:51:39;5.43;;;1.40;;
83141;SDS011;75194;51.180;5.972;2024-03-23T02:54:05;10.15;;;2.30;;
83141;SDS011;75194;51.180;5.972;2024-03-23T02:56:32;7.72;;;1.45;;
83141;SDS011;75194;51.180;5.972;2024-03-23T02:59:00;6.05;;;1.48;;
83141;SDS011;75194;51.180;5.972;2024-03-23T03:01:28;8.07;;;1.05;;
83141;SDS011;75194;51.180;5.972;2024-03-23T03:03:54;12.10;;;1.50;;
83141;SDS011;75194;51.180;5.972;2024-03-23T03:06:23;11.55;;;1.67;;
83141;SDS011;75194;51.180;5.972;2024-03-23T03:08:49;10.13;;;2.03;;
83141;SDS011;75194;51.180;5.972;2024-03-23T03:11:15;8.60;;;2.03;;
83141;SDS011;75194;51.180;5.972;2024-03-23T03:13:40;8.90;;;1.67;;
83141;SDS011;75194;51.180;5.972;2024-03-23T03:16:08;8.57;;;1.55;;
83141;SDS011;75194;51.180;5.972;2024-03-23T03:18:39;6.28;;;1.60;;
83141;SDS011;75194;51.180;5.972;2024-03-23T03:21:08;10.35;;;1.70;;
83141;SDS011;75194;51.180;5.972;2024-03-23T03:23:39;10.32;;;2.15;;
83141;SDS011;75194;51.180;5.972;2024-03-23T03:26:05;9.75;;;1.92;;
83141;SDS011;75194;51.180;5.972;2024-03-23T03:28:34;9.38;;;1.67;;
83141;SDS011;75194;51.180;5.972;2024-03-23T03:31:00;7.50;;;1.85;;
83141;SDS011;75194;51.180;5.972;2024-03-23T03:33:26;9.98;;;1.90;;
83141;SDS011;75194;51.180;5.972;2024-03-23T03:35:53;8.18;;;1.95;;
83141;SDS011;75194;51.180;5.972;2024-03-23T03:38:19;9.65;;;2.20;;
83141;SDS011;75194;51.180;5.972;2024-03-23T03:40:45;9.57;;;1.85;;
83141;SDS011;75194;51.180;5.972;2024-03-23T03:43:11;9.73;;;2.75;;
83141;SDS011;75194;51.180;5.972;2024-03-23T03:45:36;9.98;;;1.75;;
83141;SDS011;75194;51.180;5.972;2024-03-23T03:48:03;10.68;;;2.15;;
83141;SDS011;75194;51.180;5.972;2024-03-23T03:50:29;10.48;;;1.92;;
83141;SDS011;75194;51.180;5.972;2024-03-23T03:52:54;8.32;;;2.33;;
83141;SDS011;75194;51.180;5.972;2024-03-23T03:55:20;7.97;;;2.00;;
83141;SDS011;75194;51.180;5.972;2024-03-23T03:57:45;8.88;;;1.75;;
83141;SDS011;75194;51.180;5.972;2024-03-23T04:00:11;11.55;;;1.80;;
83141;SDS011;75194;51.180;5.972;2024-03-23T04:02:37;11.30;;;2.00;;
83141;SDS011;75194;51.180;5.972;2024-03-23T04:05:03;8.00;;;1.80;;
83141;SDS011;75194;51.180;5.972;2024-03-23T04:07:29;10.05;;;2.03;;
83141;SDS011;75194;51.180;5.972;2024-03-23T04:09:55;11.48;;;2.90;;
83141;SDS011;75194;51.180;5.972;2024-03-23T04:12:20;6.97;;;2.15;;
83141;SDS011;75194;51.180;5.972;2024-03-23T04:14:46;11.27;;;2.55;;
83141;SDS011;75194;51.180;5.972;2024-03-23T04:17:11;12.25;;;2.60;;
83141;SDS011;75194;51.180;5.972;2024-03-23T04:19:37;11.15;;;2.78;;
83141;SDS011;75194;51.180;5.972;2024-03-23T04:22:03;10.95;;;1.90;;
83141;SDS011;75194;51.180;5.972;2024-03-23T04:24:29;10.05;;;2.15;;
83141;SDS011;75194;51.180;5.972;2024-03-23T04:26:54;8.57;;;2.47;;
83141;SDS011;75194;51.180;5.972;2024-03-23T04:29:20;11.05;;;2.22;;
83141;SDS011;75194;51.180;5.972;2024-03-23T04:31:45;9.93;;;1.60;;
83141;SDS011;75194;51.180;5.972;2024-03-23T04:34:12;8.13;;;2.25;;
83141;SDS011;75194;51.180;5.972;2024-03-23T04:36:38;9.93;;;2.65;;
83141;SDS011;75194;51.180;5.972;2024-03-23T04:39:03;10.68;;;2.72;;
83141;SDS011;75194;51.180;5.972;2024-03-23T04:41:29;8.35;;;1.77;;
83141;SDS011;75194;51.180;5.972;2024-03-23T04:43:55;11.38;;;2.70;;
83141;SDS011;75194;51.180;5.972;2024-03-23T04:46:20;11.32;;;2.88;;
83141;SDS011;75194;51.180;5.972;2024-03-23T04:48:46;14.57;;;2.50;;
83141;SDS011;75194;51.180;5.972;2024-03-23T04:51:19;14.70;;;2.17;;
83141;SDS011;75194;51.180;5.972;2024-03-23T04:53:48;10.88;;;2.28;;
83141;SDS011;75194;51.180;5.972;2024-03-23T04:56:15;10.75;;;2.47;;
83141;SDS011;75194;51.180;5.972;2024-03-23T04:58:43;12.95;;;2.17;;
83141;SDS011;75194;51.180;5.972;2024-03-23T05:01:11;13.77;;;2.58;;
83141;SDS011;75194;51.180;5.972;2024-03-23T05:03:37;10.43;;;2.65;;
83141;SDS011;75194;51.180;5.972;2024-03-23T05:06:03;10.75;;;2.70;;
83141;SDS011;75194;51.180;5.972;2024-03-23T05:08:30;9.25;;;1.98;;
83141;SDS011;75194;51.180;5.972;2024-03-23T05:10:55;7.60;;;2.00;;
83141;SDS011;75194;51.180;5.972;2024-03-23T05:13:22;9.32;;;2.30;;
83141;SDS011;75194;51.180;5.972;2024-03-23T05:15:54;7.97;;;1.95;;
83141;SDS011;75194;51.180;5.972;2024-03-23T05:18:21;8.07;;;1.83;;
83141;SDS011;75194;51.180;5.972;2024-03-23T05:20:47;9.02;;;2.00;;
83141;SDS011;75194;51.180;5.972;2024-03-23T05:23:12;10.65;;;2.22;;
83141;SDS011;75194;51.180;5.972;2024-03-23T05:25:38;11.77;;;2.72;;
83141;SDS011;75194;51.180;5.972;2024-03-23T05:28:03;9.82;;;2.20;;
83141;SDS011;75194;51.180;5.972;2024-03-23T05:30:30;9.88;;;2.05;;
83141;SDS011;75194;51.180;5.972;2024-03-23T05:32:55;11.82;;;2.42;;
83141;SDS011;75194;51.180;5.972;2024-03-23T05:35:22;10.23;;;2.28;;
83141;SDS011;75194;51.180;5.972;2024-03-23T05:37:47;12.15;;;4.10;;
83141;SDS011;75194;51.180;5.972;2024-03-23T05:40:13;13.85;;;2.75;;
83141;SDS011;75194;51.180;5.972;2024-03-23T05:42:40;10.15;;;2.33;;
83141;SDS011;75194;51.180;5.972;2024-03-23T05:45:06;13.00;;;2.50;;
83141;SDS011;75194;51.180;5.972;2024-03-23T05:49:59;9.70;;;2.67;;
83141;SDS011;75194;51.180;5.972;2024-03-23T05:52:26;13.90;;;2.67;;
83141;SDS011;75194;51.180;5.972;2024-03-23T05:54:52;11.68;;;3.20;;
83141;SDS011;75194;51.180;5.972;2024-03-23T05:57:17;12.30;;;3.00;;
83141;SDS011;75194;51.180;5.972;2024-03-23T05:59:45;10.95;;;3.08;;
83141;SDS011;75194;51.180;5.972;2024-03-23T06:02:11;12.45;;;3.17;;
83141;SDS011;75194;51.180;5.972;2024-03-23T06:04:38;13.10;;;3.53;;
83141;SDS011;75194;51.180;5.972;2024-03-23T06:07:04;9.32;;;2.83;;
83141;SDS011;75194;51.180;5.972;2024-03-23T06:09:38;12.50;;;2.58;;
83141;SDS011;75194;51.180;5.972;2024-03-23T06:12:04;8.13;;;2.53;;
83141;SDS011;75194;51.180;5.972;2024-03-23T06:14:30;14.25;;;3.30;;
83141;SDS011;75194;51.180;5.972;2024-03-23T06:16:56;12.57;;;3.30;;
83141;SDS011;75194;51.180;5.972;2024-03-23T06:19:22;10.70;;;3.15;;
83141;SDS011;75194;51.180;5.972;2024-03-23T06:21:47;11.32;;;3.00;;
83141;SDS011;75194;51.180;5.972;2024-03-23T06:24:13;10.98;;;2.97;;
83141;SDS011;75194;51.180;5.972;2024-03-23T06:26:39;10.15;;;3.17;;
83141;SDS011;75194;51.180;5.972;2024-03-23T06:29:06;11.52;;;3.05;;
83141;SDS011;75194;51.180;5.972;2024-03-23T06:31:34;12.57;;;3.03;;
83141;SDS011;75194;51.180;5.972;2024-03-23T06:33:59;14.30;;;3.60;;
83141;SDS011;75194;51.180;5.972;2024-03-23T06:38:52;10.57;;;2.58;;
83141;SDS011;75194;51.180;5.972;2024-03-23T06:41:17;13.82;;;3.13;;
83141;SDS011;75194;51.180;5.972;2024-03-23T06:43:44;13.35;;;3.78;;
83141;SDS011;75194;51.180;5.972;2024-03-23T06:46:09;14.90;;;3.00;;
83141;SDS011;75194;51.180;5.972;2024-03-23T06:48:35;8.73;;;3.10;;
83141;SDS011;75194;51.180;5.972;2024-03-23T06:51:01;11.65;;;3.05;;
83141;SDS011;75194;51.180;5.972;2024-03-23T06:53:26;9.30;;;2.83;;
83141;SDS011;75194;51.180;5.972;2024-03-23T06:55:52;10.13;;;2.15;;
83141;SDS011;75194;51.180;5.972;2024-03-23T06:58:23;11.70;;;2.75;;
83141;SDS011;75194;51.180;5.972;2024-03-23T07:00:49;8.63;;;2.63;;
83141;SDS011;75194;51.180;5.972;2024-03-23T07:03:15;7.90;;;2.22;;
83141;SDS011;75194;51.180;5.972;2024-03-23T07:05:44;9.00;;;2.42;;
83141;SDS011;75194;51.180;5.972;2024-03-23T07:08:11;11.02;;;2.30;;
83141;SDS011;75194;51.180;5.972;2024-03-23T07:10:39;7.47;;;1.75;;
83141;SDS011;75194;51.180;5.972;2024-03-23T07:13:05;7.20;;;2.28;;
83141;SDS011;75194;51.180;5.972;2024-03-23T07:15:30;5.82;;;1.23;;
83141;SDS011;75194;51.180;5.972;2024-03-23T07:17:57;9.00;;;1.90;;
83141;SDS011;75194;51.180;5.972;2024-03-23T07:20:22;8.48;;;1.63;;
83141;SDS011;75194;51.180;5.972;2024-03-23T07:22:48;7.72;;;1.60;;
83141;SDS011;75194;51.180;5.972;2024-03-23T07:25:14;6.57;;;1.35;;
83141;SDS011;75194;51.180;5.972;2024-03-23T07:27:39;7.03;;;1.75;;
83141;SDS011;75194;51.180;5.972;2024-03-23T07:30:05;7.35;;;1.60;;
83141;SDS011;75194;51.180;5.972;2024-03-23T07:32:31;8.02;;;1.27;;
83141;SDS011;75194;51.180;5.972;2024-03-23T07:34:57;8.85;;;1.70;;
83141;SDS011;75194;51.180;5.972;2024-03-23T07:37:22;7.72;;;1.45;;
83141;SDS011;75194;51.180;5.972;2024-03-23T07:39:48;6.68;;;1.50;;
83141;SDS011;75194;51.180;5.972;2024-03-23T07:42:14;9.98;;;3.15;;
83141;SDS011;75194;51.180;5.972;2024-03-23T07:44:40;7.13;;;1.45;;
83141;SDS011;75194;51.180;5.972;2024-03-23T07:47:06;9.02;;;2.17;;
83141;SDS011;75194;51.180;5.972;2024-03-23T07:49:32;10.57;;;1.95;;
83141;SDS011;75194;51.180;5.972;2024-03-23T07:51:57;6.50;;;1.77;;
83141;SDS011;75194;51.180;5.972;2024-03-23T07:54:23;9.70;;;2.13;;
83141;SDS011;75194;51.180;5.972;2024-03-23T07:56:49;8.32;;;1.67;;
83141;SDS011;75194;51.180;5.972;2024-03-23T07:59:14;9.13;;;1.92;;
83141;SDS011;75194;51.180;5.972;2024-03-23T08:01:40;8.88;;;2.10;;
83141;SDS011;75194;51.180;5.972;2024-03-23T08:04:05;7.78;;;1.90;;
83141;SDS011;75194;51.180;5.972;2024-03-23T08:06:31;12.32;;;2.47;;
83141;SDS011;75194;51.180;5.972;2024-03-23T08:08:57;12.02;;;2.38;;
83141;SDS011;75194;51.180;5.972;2024-03-23T08:11:26;7.90;;;2.53;;
83141;SDS011;75194;51.180;5.972;2024-03-23T08:13:53;11.18;;;2.53;;
83141;SDS011;75194;51.180;5.972;2024-03-23T08:16:18;12.38;;;2.67;;
83141;SDS011;75194;51.180;5.972;2024-03-23T08:18:44;9.00;;;2.65;;
83141;SDS011;75194;51.180;5.972;2024-03-23T08:21:09;9.52;;;2.45;;
83141;SDS011;75194;51.180;5.972;2024-03-23T08:23:35;9.70;;;2.55;;
83141;SDS011;75194;51.180;5.972;2024-03-23T08:26:04;10.93;;;2.42;;
83141;SDS011;75194;51.180;5.972;2024-03-23T08:28:36;7.15;;;2.28;;
83141;SDS011;75194;51.180;5.972;2024-03-23T08:31:09;8.20;;;1.95;;
83141;SDS011;75194;51.180;5.972;2024-03-23T08:33:36;13.73;;;3.00;;
83141;SDS011;75194;51.180;5.972;2024-03-23T08:36:04;9.95;;;3.03;;
83141;SDS011;75194;51.180;5.972;2024-03-23T08:38:31;8.48;;;2.10;;
83141;SDS011;75194;51.180;5.972;2024-03-23T08:40:57;10.77;;;2.60;;
83141;SDS011;75194;51.180;5.972;2024-03-23T08:43:24;8.93;;;2.35;;
83141;SDS011;75194;51.180;5.972;2024-03-23T08:45:50;9.70;;;2.50;;
83141;SDS011;75194;51.180;5.972;2024-03-23T08:48:17;11.50;;;2.55;;
83141;SDS011;75194;51.180;5.972;2024-03-23T08:50:44;12.02;;;2.50;;
83141;SDS011;75194;51.180;5.972;2024-03-23T08:53:10;11.63;;;2.20;;
83141;SDS011;75194;51.180;5.972;2024-03-23T08:55:35;9.52;;;1.95;;
83141;SDS011;75194;51.180;5.972;2024-03-23T08:58:01;13.60;;;2.17;;
83141;SDS011;75194;51.180;5.972;2024-03-23T09:00:27;8.48;;;2.05;;
83141;SDS011;75194;51.180;5.972;2024-03-23T09:02:52;7.97;;;1.90;;
83141;SDS011;75194;51.180;5.972;2024-03-23T09:05:18;8.70;;;1.83;;
83141;SDS011;75194;51.180;5.972;2024-03-23T09:07:44;9.60;;;1.65;;
83141;SDS011;75194;51.180;5.972;2024-03-23T09:10:10;8.00;;;2.42;;
83141;SDS011;75194;51.180;5.972;2024-03-23T09:12:35;14.35;;;2.35;;
83141;SDS011;75194;51.180;5.972;2024-03-23T09:15:01;8.18;;;1.50;;
83141;SDS011;75194;51.180;5.972;2024-03-23T09:17:26;8.18;;;1.50;;
83141;SDS011;75194;51.180;5.972;2024-03-23T09:19:54;9.52;;;1.80;;
83141;SDS011;75194;51.180;5.972;2024-03-23T09:22:20;7.07;;;1.13;;
83141;SDS011;75194;51.180;5.972;2024-03-23T09:24:48;7.75;;;1.20;;
83141;SDS011;75194;51.180;5.972;2024-03-23T09:27:14;10.77;;;1.77;;
83141;SDS011;75194;51.180;5.972;2024-03-23T09:29:42;8.70;;;1.95;;
83141;SDS011;75194;51.180;5.972;2024-03-23T09:32:08;8.50;;;1.40;;
83141;SDS011;75194;51.180;5.972;2024-03-23T09:34:34;7.47;;;1.65;;
83141;SDS011;75194;51.180;5.972;2024-03-23T09:36:59;8.65;;;1.77;;
83141;SDS011;75194;51.180;5.972;2024-03-23T09:39:25;5.95;;;1.25;;
83141;SDS011;75194;51.180;5.972;2024-03-23T09:41:51;8.23;;;1.50;;
83141;SDS011;75194;51.180;5.972;2024-03-23T09:44:21;5.40;;;1.23;;
83141;SDS011;75194;51.180;5.972;2024-03-23T09:46:54;6.68;;;1.08;;
83141;SDS011;75194;51.180;5.972;2024-03-23T09:49:22;8.32;;;1.42;;
83141;SDS011;75194;51.180;5.972;2024-03-23T09:51:50;6.35;;;1.30;;
83141;SDS011;75194;51.180;5.972;2024-03-23T09:54:16;8.63;;;1.67;;
83141;SDS011;75194;51.180;5.972;2024-03-23T09:56:42;7.68;;;1.25;;
83141;SDS011;75194;51.180;5.972;2024-03-23T09:59:10;6.40;;;1.25;;
83141;SDS011;75194;51.180;5.972;2024-03-23T10:01:36;6.47;;;1.05;;
83141;SDS011;75194;51.180;5.972;2024-03-23T10:04:02;5.20;;;1.08;;
83141;SDS011;75194;51.180;5.972;2024-03-23T10:06:28;4.72;;;0.88;;
83141;SDS011;75194;51.180;5.972;2024-03-23T10:08:53;4.65;;;0.90;;
83141;SDS011;75194;51.180;5.972;2024-03-23T10:11:20;4.90;;;0.95;;
83141;SDS011;75194;51.180;5.972;2024-03-23T10:13:46;5.93;;;0.98;;
83141;SDS011;75194;51.180;5.972;2024-03-23T10:16:12;6.85;;;1.20;;
83141;SDS011;75194;51.180;5.972;2024-03-23T10:18:47;5.65;;;0.90;;
83141;SDS011;75194;51.180;5.972;2024-03-23T10:21:13;6.75;;;1.00;;
83141;SDS011;75194;51.180;5.972;2024-03-23T10:23:40;4.68;;;0.82;;
83141;SDS011;75194;51.180;5.972;2024-03-23T10:26:19;3.38;;;0.80;;
83141;SDS011;75194;51.180;5.972;2024-03-23T10:31:30;5.82;;;1.02;;
83141;SDS011;75194;51.180;5.972;2024-03-23T10:33:56;5.18;;;0.80;;
83141;SDS011;75194;51.180;5.972;2024-03-23T10:36:22;7.97;;;1.65;;
83141;SDS011;75194;51.180;5.972;2024-03-23T10:41:16;6.28;;;1.25;;
83141;SDS011;75194;51.180;5.972;2024-03-23T10:43:42;7.75;;;2.22;;
83141;SDS011;75194;51.180;5.972;2024-03-23T10:46:10;7.18;;;1.40;;
83141;SDS011;75194;51.180;5.972;2024-03-23T10:48:35;5.22;;;1.00;;
83141;SDS011;75194;51.180;5.972;2024-03-23T10:51:01;6.88;;;1.40;;
83141;SDS011;75194;51.180;5.972;2024-03-23T10:53:28;6.82;;;1.38;;
83141;SDS011;75194;51.180;5.972;2024-03-23T10:55:54;5.80;;;1.13;;
83141;SDS011;75194;51.180;5.972;2024-03-23T11:01:10;7.70;;;2.13;;
83141;SDS011;75194;51.180;5.972;2024-03-23T11:03:37;7.25;;;2.20;;
83141;SDS011;75194;51.180;5.972;2024-03-23T11:06:06;6.95;;;1.88;;
83141;SDS011;75194;51.180;5.972;2024-03-23T11:08:39;7.07;;;1.52;;
83141;SDS011;75194;51.180;5.972;2024-03-23T11:11:21;4.45;;;0.90;;
83141;SDS011;75194;51.180;5.972;2024-03-23T11:13:50;6.63;;;1.42;;
83141;SDS011;75194;51.180;5.972;2024-03-23T11:18:42;5.28;;;1.27;;
83141;SDS011;75194;51.180;5.972;2024-03-23T11:21:09;5.93;;;1.33;;
83141;SDS011;75194;51.180;5.972;2024-03-23T11:23:35;5.75;;;1.27;;
83141;SDS011;75194;51.180;5.972;2024-03-23T11:26:01;5.35;;;1.40;;
83141;SDS011;75194;51.180;5.972;2024-03-23T11:28:26;5.22;;;1.10;;
83141;SDS011;75194;51.180;5.972;2024-03-23T11:30:52;6.47;;;1.30;;
83141;SDS011;75194;51.180;5.972;2024-03-23T11:33:17;4.85;;;0.60;;
83141;SDS011;75194;51.180;5.972;2024-03-23T11:35:44;4.53;;;0.75;;
83141;SDS011;75194;51.180;5.972;2024-03-23T11:38:10;4.40;;;0.60;;
83141;SDS011;75194;51.180;5.972;2024-03-23T11:40:38;3.17;;;0.65;;
83141;SDS011;75194;51.180;5.972;2024-03-23T11:43:11;4.80;;;0.52;;
83141;SDS011;75194;51.180;5.972;2024-03-23T11:45:45;4.63;;;0.55;;
83141;SDS011;75194;51.180;5.972;2024-03-23T11:48:12;2.08;;;0.57;;
83141;SDS011;75194;51.180;5.972;2024-03-23T11:50:42;3.03;;;0.50;;
83141;SDS011;75194;51.180;5.972;2024-03-23T11:55:43;3.88;;;0.57;;
83141;SDS011;75194;51.180;5.972;2024-03-23T11:58:09;2.75;;;0.50;;
83141;SDS011;75194;51.180;5.972;2024-03-23T12:00:36;2.63;;;0.60;;
83141;SDS011;75194;51.180;5.972;2024-03-23T12:03:02;4.55;;;0.40;;
83141;SDS011;75194;51.180;5.972;2024-03-23T12:05:28;3.72;;;0.50;;
83141;SDS011;75194;51.180;5.972;2024-03-23T12:07:55;4.57;;;0.50;;
83141;SDS011;75194;51.180;5.972;2024-03-23T12:10:20;4.25;;;0.50;;
83141;SDS011;75194;51.180;5.972;2024-03-23T12:12:57;5.10;;;0.98;;
83141;SDS011;75194;51.180;5.972;2024-03-23T12:15:26;5.25;;;0.60;;
83141;SDS011;75194;51.180;5.972;2024-03-23T12:18:05;5.05;;;0.82;;
83141;SDS011;75194;51.180;5.972;2024-03-23T12:20:34;4.93;;;0.63;;
83141;SDS011;75194;51.180;5.972;2024-03-23T12:23:06;4.60;;;0.73;;
83141;SDS011;75194;51.180;5.972;2024-03-23T12:25:35;4.15;;;0.60;;
83141;SDS011;75194;51.180;5.972;2024-03-23T12:28:01;3.25;;;0.30;;
83141;SDS011;75194;51.180;5.972;2024-03-23T12:30:27;4.63;;;1.08;;
83141;SDS011;75194;51.180;5.972;2024-03-23T12:32:53;3.00;;;0.35;;
83141;SDS011;75194;51.180;5.972;2024-03-23T12:35:19;3.30;;;0.50;;
83141;SDS011;75194;51.180;5.972;2024-03-23T12:37:45;2.42;;;0.68;;
83141;SDS011;75194;51.180;5.972;2024-03-23T12:40:13;4.28;;;0.52;;
83141;SDS011;75194;51.180;5.972;2024-03-23T12:42:38;5.43;;;0.80;;
83141;SDS011;75194;51.180;5.972;2024-03-23T12:45:04;5.05;;;0.60;;
83141;SDS011;75194;51.180;5.972;2024-03-23T12:47:30;3.63;;;0.63;;
83141;SDS011;75194;51.180;5.972;2024-03-23T12:49:56;5.18;;;0.70;;
83141;SDS011;75194;51.180;5.972;2024-03-23T12:52:21;6.55;;;0.80;;
83141;SDS011;75194;51.180;5.972;2024-03-23T12:54:49;5.22;;;1.20;;
83141;SDS011;75194;51.180;5.972;2024-03-23T12:57:14;4.10;;;0.63;;
83141;SDS011;75194;51.180;5.972;2024-03-23T12:59:40;4.25;;;0.60;;
83141;SDS011;75194;51.180;5.972;2024-03-23T13:02:05;4.57;;;0.60;;
83141;SDS011;75194;51.180;5.972;2024-03-23T13:04:32;5.35;;;0.57;;
83141;SDS011;75194;51.180;5.972;2024-03-23T13:06:57;3.80;;;0.68;;
83141;SDS011;75194;51.180;5.972;2024-03-23T13:09:23;3.90;;;0.60;;
83141;SDS011;75194;51.180;5.972;2024-03-23T13:11:49;3.22;;;0.60;;
83141;SDS011;75194;51.180;5.972;2024-03-23T13:14:16;1.88;;;0.40;;
83141;SDS011;75194;51.180;5.972;2024-03-23T13:16:41;3.55;;;0.47;;
83141;SDS011;75194;51.180;5.972;2024-03-23T13:19:07;2.72;;;0.50;;
83141;SDS011;75194;51.180;5.972;2024-03-23T13:21:33;4.32;;;0.70;;
83141;SDS011;75194;51.180;5.972;2024-03-23T13:23:58;3.65;;;0.80;;
83141;SDS011;75194;51.180;5.972;2024-03-23T13:26:24;3.38;;;0.82;;
83141;SDS011;75194;51.180;5.972;2024-03-23T13:28:49;3.55;;;0.77;;
83141;SDS011;75194;51.180;5.972;2024-03-23T13:31:18;8.68;;;1.10;;
83141;SDS011;75194;51.180;5.972;2024-03-23T13:33:44;5.28;;;0.80;;
83141;SDS011;75194;51.180;5.972;2024-03-23T13:36:10;5.22;;;1.05;;
83141;SDS011;75194;51.180;5.972;2024-03-23T13:38:35;5.57;;;1.00;;
83141;SDS011;75194;51.180;5.972;2024-03-23T13:41:01;7.97;;;1.38;;
83141;SDS011;75194;51.180;5.972;2024-03-23T13:43:29;5.22;;;1.20;;
83141;SDS011;75194;51.180;5.972;2024-03-23T13:45:55;5.90;;;1.55;;
83141;SDS011;75194;51.180;5.972;2024-03-23T13:48:26;4.63;;;1.02;;
83141;SDS011;75194;51.180;5.972;2024-03-23T13:50:59;3.97;;;0.80;;
83141;SDS011;75194;51.180;5.972;2024-03-23T13:53:25;4.35;;;0.85;;
83141;SDS011;75194;51.180;5.972;2024-03-23T13:55:50;3.47;;;0.85;;
83141;SDS011;75194;51.180;5.972;2024-03-23T13:58:16;3.72;;;0.40;;
83141;SDS011;75194;51.180;5.972;2024-03-23T14:00:42;4.00;;;0.60;;
83141;SDS011;75194;51.180;5.972;2024-03-23T14:03:11;3.58;;;0.60;;
83141;SDS011;75194;51.180;5.972;2024-03-23T14:05:37;3.80;;;0.70;;
83141;SDS011;75194;51.180;5.972;2024-03-23T14:08:06;3.30;;;0.80;;
83141;SDS011;75194;51.180;5.972;2024-03-23T14:10:35;4.03;;;0.63;;
83141;SDS011;75194;51.180;5.972;2024-03-23T14:13:07;4.22;;;0.73;;
83141;SDS011;75194;51.180;5.972;2024-03-23T14:15:32;4.30;;;0.90;;
83141;SDS011;75194;51.180;5.972;2024-03-23T14:17:59;5.30;;;1.08;;
83141;SDS011;75194;51.180;5.972;2024-03-23T14:22:51;4.82;;;0.90;;
83141;SDS011;75194;51.180;5.972;2024-03-23T14:25:17;4.72;;;0.90;;
83141;SDS011;75194;51.180;5.972;2024-03-23T14:27:43;5.28;;;0.98;;
83141;SDS011;75194;51.180;5.972;2024-03-23T14:30:10;6.20;;;0.90;;
83141;SDS011;75194;51.180;5.972;2024-03-23T14:35:06;5.53;;;0.80;;
83141;SDS011;75194;51.180;5.972;2024-03-23T14:37:35;4.95;;;0.93;;
83141;SDS011;75194;51.180;5.972;2024-03-23T14:40:01;5.68;;;0.95;;
83141;SDS011;75194;51.180;5.972;2024-03-23T14:42:27;4.57;;;0.93;;
83141;SDS011;75194;51.180;5.972;2024-03-23T14:44:53;5.15;;;0.85;;
83141;SDS011;75194;51.180;5.972;2024-03-23T14:47:19;4.47;;;1.00;;
83141;SDS011;75194;51.180;5.972;2024-03-23T14:49:46;5.03;;;0.90;;
83141;SDS011;75194;51.180;5.972;2024-03-23T14:52:13;4.25;;;1.05;;
83141;SDS011;75194;51.180;5.972;2024-03-23T14:54:39;5.25;;;1.15;;
83141;SDS011;75194;51.180;5.972;2024-03-23T14:57:04;3.35;;;0.60;;
83141;SDS011;75194;51.180;5.972;2024-03-23T15:01:57;5.30;;;1.02;;
83141;SDS011;75194;51.180;5.972;2024-03-23T15:04:23;4.35;;;0.60;;
83141;SDS011;75194;51.180;5.972;2024-03-23T15:06:48;3.08;;;0.60;;
83141;SDS011;75194;51.180;5.972;2024-03-23T15:09:15;3.05;;;0.55;;
83141;SDS011;75194;51.180;5.972;2024-03-23T15:11:41;2.95;;;0.55;;
83141;SDS011;75194;51.180;5.972;2024-03-23T15:14:06;3.75;;;0.57;;
83141;SDS011;75194;51.180;5.972;2024-03-23T15:16:32;4.60;;;0.70;;
83141;SDS011;75194;51.180;5.972;2024-03-23T15:18:58;3.13;;;0.70;;
83141;SDS011;75194;51.180;5.972;2024-03-23T15:21:25;2.65;;;0.50;;
83141;SDS011;75194;51.180;5.972;2024-03-23T15:23:50;4.80;;;0.80;;
83141;SDS011;75194;51.180;5.972;2024-03-23T15:26:16;3.90;;;0.55;;
83141;SDS011;75194;51.180;5.972;2024-03-23T15:28:41;2.78;;;0.50;;
83141;SDS011;75194;51.180;5.972;2024-03-23T15:31:22;5.97;;;1.48;;
83141;SDS011;75194;51.180;5.972;2024-03-23T15:33:48;4.85;;;0.90;;
83141;SDS011;75194;51.180;5.972;2024-03-23T15:36:14;4.10;;;0.75;;
83141;SDS011;75194;51.180;5.972;2024-03-23T15:38:40;5.43;;;0.73;;
83141;SDS011;75194;51.180;5.972;2024-03-23T15:41:05;3.92;;;0.88;;
83141;SDS011;75194;51.180;5.972;2024-03-23T15:43:31;4.53;;;0.80;;
83141;SDS011;75194;51.180;5.972;2024-03-23T15:46:05;4.03;;;0.50;;
83141;SDS011;75194;51.180;5.972;2024-03-23T15:48:31;6.47;;;0.98;;
83141;SDS011;75194;51.180;5.972;2024-03-23T15:50:58;4.28;;;0.65;;
83141;SDS011;75194;51.180;5.972;2024-03-23T15:53:25;2.75;;;0.60;;
83141;SDS011;75194;51.180;5.972;2024-03-23T15:58:24;3.88;;;0.47;;
83141;SDS011;75194;51.180;5.972;2024-03-23T16:01:06;2.60;;;0.40;;
83141;SDS011;75194;51.180;5.972;2024-03-23T16:03:38;2.88;;;0.30;;
83141;SDS011;75194;51.180;5.972;2024-03-23T16:06:04;3.42;;;0.40;;
83141;SDS011;75194;51.180;5.972;2024-03-23T16:08:32;3.65;;;0.50;;